METAR Data
IDs: Format: Raw Decoded Include TAF

Data at: 0604 UTC 03 Jul 2022

METAR for:KSPA (Spartanburg/Downtown, SC, US)
Text:KSPA 030555Z AUTO 00000KT 10SM CLR 23/22 A3002 RMK AO2
Temperature: 23.0°C ( 73°F)
Dewpoint: 22.0°C ( 72°F) [RH = 94%]
Pressure (altimeter):30.02 inches Hg (1016.7 mb)
Winds:calm
Visibility:10 or more sm (16+ km)
Ceiling:at least 12,000 feet AGL
Clouds:sky clear below 12,000 feet AGL
QC Flag:automated observation with no human augmentation

TAF for:KSPA (Spartanburg/Downtown, SC, US)
Text:No data found